createdAt,value
2022-12-22T00:00:55.071Z,4.51
2022-12-22T00:06:15.651Z,4.54
2022-12-22T00:11:36.306Z,4.56
2022-12-22T00:16:58.724Z,4.61
2022-12-22T00:22:21.549Z,4.64
2022-12-22T00:27:48.733Z,4.61
2022-12-22T00:33:12.846Z,4.58
2022-12-22T00:38:39.417Z,4.43
2022-12-22T00:44:00.212Z,4.38
2022-12-22T00:49:21.159Z,4.35
2022-12-22T00:54:42.249Z,4.30
2022-12-22T01:00:03.029Z,4.22
2022-12-22T01:05:23.613Z,4.26
2022-12-22T01:10:45.442Z,4.20
2022-12-22T01:16:06.178Z,4.16
2022-12-22T01:21:28.332Z,4.26
2022-12-22T01:26:49.360Z,4.28
2022-12-22T01:32:10.478Z,4.38
2022-12-22T01:37:31.134Z,4.43
2022-12-22T01:42:53.269Z,4.58
2022-12-22T01:48:13.981Z,4.64
2022-12-22T01:53:38.981Z,4.63
2022-12-22T01:59:03.180Z,4.66
2022-12-22T02:04:24.743Z,4.68
2022-12-22T02:10:00.835Z,4.56
2022-12-22T02:15:44.390Z,4.52
2022-12-22T02:21:23.464Z,4.42
2022-12-22T02:26:54.443Z,4.41
2022-12-22T02:32:16.272Z,4.36
2022-12-22T02:37:56.681Z,4.38
2022-12-22T02:43:32.434Z,4.37
2022-12-22T02:49:02.910Z,4.37
2022-12-22T02:54:26.064Z,4.35
2022-12-22T02:59:46.673Z,4.44
2022-12-22T03:05:07.428Z,4.37
2022-12-22T03:10:28.831Z,4.36
2022-12-22T03:15:49.391Z,4.38
2022-12-22T03:21:10.043Z,4.38
2022-12-22T03:26:11.813Z,4.30
2022-12-22T03:31:13.848Z,4.23
2022-12-22T03:36:15.611Z,4.29
2022-12-22T03:41:35.870Z,4.27
2022-12-22T03:46:37.760Z,4.24
2022-12-22T03:51:45.510Z,4.38
2022-12-22T03:56:48.140Z,4.45
2022-12-22T04:01:53.414Z,4.48
2022-12-22T04:06:55.857Z,4.57
2022-12-22T04:12:16.112Z,4.68
2022-12-22T04:17:17.936Z,4.77
2022-12-22T04:22:19.605Z,4.82
2022-12-22T04:27:21.380Z,4.77
2022-12-22T04:32:23.252Z,4.63
2022-12-22T04:37:25.004Z,4.52
2022-12-22T04:42:26.752Z,4.48
2022-12-22T04:47:28.575Z,4.36
2022-12-22T04:52:30.426Z,4.35
2022-12-22T04:57:38.608Z,4.32
2022-12-22T05:02:42.368Z,4.28
2022-12-22T05:07:44.308Z,4.23
2022-12-22T05:12:55.145Z,4.21
2022-12-22T05:17:58.346Z,4.28
2022-12-22T05:23:00.131Z,4.32
2022-12-22T05:28:01.931Z,4.38
2022-12-22T05:33:03.605Z,4.36
2022-12-22T05:38:05.327Z,4.43
2022-12-22T05:43:07.097Z,4.46
2022-12-22T05:48:08.807Z,4.51
2022-12-22T05:53:10.591Z,4.63
2022-12-22T05:58:12.377Z,4.67
2022-12-22T06:03:14.216Z,4.80
2022-12-22T06:08:16.434Z,4.87
2022-12-22T06:13:18.192Z,5.00
2022-12-22T06:18:19.988Z,4.94
2022-12-22T06:23:22.750Z,4.88
2022-12-22T06:28:24.808Z,4.72
2022-12-22T06:33:26.808Z,4.65
2022-12-22T06:38:28.824Z,4.64
2022-12-22T06:43:30.741Z,4.62
2022-12-22T06:48:32.431Z,4.64
2022-12-22T06:53:34.140Z,4.58
2022-12-22T06:58:35.804Z,4.55
2022-12-22T07:03:37.538Z,4.62
2022-12-22T07:08:39.253Z,4.67
2022-12-22T07:13:41.648Z,4.64
2022-12-22T07:18:43.465Z,4.56
2022-12-22T07:23:45.197Z,4.60
2022-12-22T07:28:47.008Z,4.71
2022-12-22T07:33:48.792Z,4.82
2022-12-22T07:38:52.020Z,4.85
2022-12-22T07:43:55.269Z,4.97
2022-12-22T07:49:16.206Z,5.08
2022-12-22T07:54:18.758Z,5.24
2022-12-22T07:59:20.638Z,5.43
2022-12-22T08:04:22.701Z,5.57
2022-12-22T08:09:24.673Z,5.59
2022-12-22T08:14:26.714Z,5.59
2022-12-22T08:19:28.527Z,5.83
2022-12-22T08:24:30.677Z,5.97
2022-12-22T08:29:38.427Z,6.13
2022-12-22T08:34:40.653Z,6.29
2022-12-22T08:39:46.563Z,6.61
2022-12-22T08:44:53.416Z,6.74
2022-12-22T08:49:55.335Z,6.75
2022-12-22T08:54:57.189Z,6.87
2022-12-22T08:59:59.212Z,6.87
2022-12-22T09:05:00.993Z,6.82
2022-12-22T09:10:02.737Z,6.84
2022-12-22T09:15:06.166Z,6.86
2022-12-22T09:20:08.566Z,6.92
2022-12-22T09:25:10.977Z,6.69
2022-12-22T09:30:13.210Z,6.68
2022-12-22T09:35:14.990Z,6.72
2022-12-22T09:40:16.827Z,6.58
2022-12-22T09:45:21.766Z,6.34
2022-12-22T09:50:26.111Z,6.28
2022-12-22T09:55:43.486Z,6.30
2022-12-22T10:00:51.115Z,6.46
2022-12-22T10:06:17.383Z,6.56
2022-12-22T10:11:19.265Z,6.57
2022-12-22T10:16:27.437Z,6.78
2022-12-22T10:21:29.319Z,7.02
2022-12-22T10:26:34.289Z,7.14
2022-12-22T10:31:56.745Z,7.36
2022-12-22T10:37:01.463Z,7.71
2022-12-22T10:42:14.658Z,7.84
2022-12-22T10:47:24.480Z,7.91
2022-12-22T10:52:32.119Z,7.99
2022-12-22T10:57:34.446Z,8.05
2022-12-22T11:02:38.480Z,8.13
2022-12-22T11:07:42.750Z,8.27
2022-12-22T11:12:59.224Z,8.46
2022-12-22T11:18:14.540Z,8.51
2022-12-22T11:23:41.883Z,8.44
2022-12-22T11:28:49.544Z,8.42
2022-12-22T11:34:09.723Z,8.14
2022-12-22T11:39:15.510Z,7.93
2022-12-22T11:44:45.111Z,7.80
2022-12-22T11:51:01.384Z,7.69
2022-12-22T11:55:43.349Z,7.58
2022-12-22T12:01:19.074Z,7.61
2022-12-22T12:06:34.968Z,7.47
2022-12-22T12:11:53.941Z,7.26
2022-12-22T12:17:03.128Z,7.10
2022-12-22T12:22:08.758Z,6.96
2022-12-22T12:27:41.742Z,6.89
2022-12-22T12:32:55.647Z,6.75
2022-12-22T12:38:06.150Z,6.61
2022-12-22T12:43:16.286Z,6.56
2022-12-22T12:48:24.495Z,6.59
2022-12-22T12:53:28.355Z,6.62
2022-12-22T12:58:39.163Z,6.66
2022-12-22T13:09:39.806Z,6.73
2022-12-22T13:14:57.402Z,6.82
2022-12-22T13:19:59.565Z,6.85
2022-12-22T13:25:04.063Z,6.80
2022-12-22T13:30:11.249Z,6.73
2022-12-22T13:35:37.499Z,6.60
2022-12-22T13:40:44.106Z,6.48
2022-12-22T13:45:52.927Z,6.35
2022-12-22T13:50:58.366Z,6.24
2022-12-22T13:56:00.731Z,6.13
2022-12-22T14:01:10.285Z,6.01
2022-12-22T14:06:39.363Z,5.91
2022-12-22T14:11:51.221Z,5.82
2022-12-22T14:16:57.451Z,5.70
2022-12-22T14:22:04.539Z,5.66
2022-12-22T14:27:12.247Z,5.65
2022-12-22T14:32:39.772Z,5.64
2022-12-22T14:37:41.609Z,5.61
2022-12-22T14:42:44.033Z,5.61
2022-12-22T14:47:45.868Z,5.60
2022-12-22T14:52:51.722Z,5.61
2022-12-22T14:57:59.144Z,5.62
2022-12-22T15:03:06.364Z,5.61
2022-12-22T15:08:38.823Z,5.58
2022-12-22T15:13:41.930Z,5.55
2022-12-22T15:18:44.857Z,5.59
2022-12-22T15:23:47.257Z,5.61
2022-12-22T15:28:49.026Z,5.64
2022-12-22T15:33:50.949Z,5.65
2022-12-22T15:38:52.739Z,5.68
2022-12-22T15:43:57.836Z,5.74
2022-12-22T15:49:01.260Z,5.73
2022-12-22T15:54:04.510Z,5.77
2022-12-22T15:59:06.266Z,5.83
2022-12-22T16:04:08.146Z,5.83
2022-12-22T16:09:27.744Z,5.91
2022-12-22T16:14:35.258Z,5.93
2022-12-22T16:19:40.540Z,5.96
2022-12-22T16:24:45.757Z,6.02
2022-12-22T16:29:52.943Z,6.04
2022-12-22T16:35:13.139Z,6.06
2022-12-22T16:40:15.463Z,6.06
2022-12-22T16:45:28.704Z,6.07
2022-12-22T16:50:33.593Z,6.03
2022-12-22T16:55:36.220Z,6.04
2022-12-22T17:00:40.641Z,5.99
2022-12-22T17:05:46.274Z,6.00
2022-12-22T17:10:49.794Z,5.97
2022-12-22T17:15:51.648Z,6.01
2022-12-22T17:20:58.347Z,5.98
2022-12-22T17:26:03.565Z,5.91
2022-12-22T17:31:06.630Z,5.84
2022-12-22T17:36:18.736Z,5.76
2022-12-22T17:41:20.847Z,5.67
2022-12-22T17:46:22.990Z,5.65
2022-12-22T17:51:28.275Z,5.54
2022-12-22T17:56:30.991Z,5.44
2022-12-22T18:01:33.959Z,5.41
2022-12-22T18:06:38.839Z,5.39
2022-12-22T18:11:45.662Z,5.39
2022-12-22T18:16:48.113Z,5.39
2022-12-22T18:21:50.035Z,5.40
2022-12-22T18:26:51.929Z,5.44
2022-12-22T18:31:53.807Z,5.44
2022-12-22T18:36:55.683Z,5.48
2022-12-22T18:41:58.394Z,5.49
2022-12-22T18:47:00.350Z,5.49
2022-12-22T18:52:04.255Z,5.53
2022-12-22T18:57:13.865Z,5.56
2022-12-22T19:02:23.519Z,5.56
2022-12-22T19:07:26.797Z,5.65
2022-12-22T19:12:28.803Z,5.78
2022-12-22T19:17:30.929Z,5.83
2022-12-22T19:22:32.662Z,5.86
2022-12-22T19:27:34.440Z,5.94
2022-12-22T19:32:42.120Z,5.99
2022-12-22T19:37:46.159Z,6.12
2022-12-22T19:42:51.310Z,6.19
2022-12-22T19:47:54.127Z,6.20
2022-12-22T19:53:00.915Z,6.22
2022-12-22T19:58:03.124Z,6.24
2022-12-22T20:03:06.283Z,6.31
2022-12-22T20:08:08.292Z,6.34
2022-12-22T20:13:17.702Z,6.33
2022-12-22T20:18:22.536Z,6.32
2022-12-22T20:23:25.161Z,6.28
2022-12-22T20:28:31.356Z,6.21
2022-12-22T20:33:34.947Z,6.15
2022-12-22T20:38:41.109Z,6.05
2022-12-22T20:43:42.992Z,5.97
2022-12-22T20:48:50.671Z,5.94
2022-12-22T20:53:53.715Z,5.93
2022-12-22T20:58:56.257Z,5.90
2022-12-22T21:03:58.169Z,5.87
2022-12-22T21:09:01.318Z,5.90
2022-12-22T21:14:03.466Z,5.90
2022-12-22T21:19:05.573Z,5.89
2022-12-22T21:24:07.480Z,5.91
2022-12-22T21:29:16.126Z,5.96
2022-12-22T21:34:18.434Z,5.97
2022-12-22T21:39:33.360Z,6.01
2022-12-22T21:44:35.805Z,6.03
2022-12-22T21:49:37.663Z,6.03
2022-12-22T21:54:39.563Z,6.07
2022-12-22T21:59:41.328Z,6.16
2022-12-22T22:04:46.738Z,6.13
2022-12-22T22:09:53.832Z,6.10
2022-12-22T22:14:56.118Z,6.09
2022-12-22T22:19:58.041Z,6.12
2022-12-22T22:24:59.821Z,6.16
2022-12-22T22:30:01.641Z,6.17
2022-12-22T22:35:05.091Z,6.17
2022-12-22T22:40:11.737Z,6.17
2022-12-22T22:45:15.616Z,6.12
2022-12-22T22:50:19.000Z,6.13
2022-12-22T22:55:20.941Z,6.06
2022-12-22T23:00:22.964Z,5.95
2022-12-22T23:05:24.702Z,5.93
2022-12-22T23:10:26.581Z,5.92
2022-12-22T23:15:28.273Z,5.92
2022-12-22T23:20:29.993Z,5.91
2022-12-22T23:25:31.872Z,5.89
2022-12-22T23:30:33.561Z,5.89
2022-12-22T23:35:37.197Z,5.79
2022-12-22T23:40:55.700Z,5.75
2022-12-22T23:45:57.891Z,5.71
2022-12-22T23:50:59.889Z,5.76
2022-12-22T23:56:01.947Z,5.78
